Terminal Aerodrome Forecast
Issued by NWS Sterling, VA

Current Version | Previous Version | Graphics & Text | Print | Product List | Glossary On
Versions: 1 2 3 4 5 6 7 8 9 10 11 12 13 14 15 16 17 18 19 20 21 22 23 24 25 26 27 28
000
FTUS41 KLWX 261128
TAFDCA
TAF
KDCA 261128Z 2612/2712 08011KT P6SM OVC015
     FM261500 09010G18KT 4SM -DZ OVC015
     FM270500 14007KT 4SM -DZ OVC015
     FM270600 15007KT P6SM OVC010
     FM270800 17007KT P6SM OVC015
     FM271100 19007KT P6SM BKN008=

USA.gov is the U.S. government's official web portal to all federal, state and local government web resources and services.